sensor_id;sensor_type;location;lat;lon;timestamp;P1;durP1;ratioP1;P2;durP2;ratioP2
64401;SDS011;50724;42.376;23.768;2023-06-26T05:10:26;15.52;;;10.68;;
64401;SDS011;50724;42.376;23.768;2023-06-26T05:13:36;15.15;;;9.88;;
64401;SDS011;50724;42.376;23.768;2023-06-26T05:16:36;16.08;;;10.68;;
64401;SDS011;50724;42.376;23.768;2023-06-26T05:19:37;14.98;;;10.15;;
64401;SDS011;50724;42.376;23.768;2023-06-26T05:22:37;15.40;;;10.23;;
64401;SDS011;50724;42.376;23.768;2023-06-26T05:28:40;17.52;;;11.02;;
64401;SDS011;50724;42.376;23.768;2023-06-26T05:31:41;18.30;;;10.32;;
64401;SDS011;50724;42.376;23.768;2023-06-26T05:34:42;19.30;;;11.57;;
64401;SDS011;50724;42.376;23.768;2023-06-26T05:37:42;18.52;;;11.57;;
64401;SDS011;50724;42.376;23.768;2023-06-26T05:40:43;17.23;;;11.63;;
64401;SDS011;50724;42.376;23.768;2023-06-26T05:43:44;18.23;;;10.75;;
64401;SDS011;50724;42.376;23.768;2023-06-26T05:46:45;15.82;;;10.88;;
64401;SDS011;50724;42.376;23.768;2023-06-26T05:49:46;17.52;;;11.57;;
64401;SDS011;50724;42.376;23.768;2023-06-26T05:52:46;18.17;;;11.40;;
64401;SDS011;50724;42.376;23.768;2023-06-26T05:55:47;19.73;;;12.02;;
64401;SDS011;50724;42.376;23.768;2023-06-26T05:58:48;20.38;;;11.63;;
64401;SDS011;50724;42.376;23.768;2023-06-26T06:01:49;16.02;;;11.05;;
64401;SDS011;50724;42.376;23.768;2023-06-26T06:04:50;19.92;;;12.35;;
64401;SDS011;50724;42.376;23.768;2023-06-26T06:07:51;16.33;;;11.73;;
64401;SDS011;50724;42.376;23.768;2023-06-26T06:10:52;16.23;;;10.88;;
64401;SDS011;50724;42.376;23.768;2023-06-26T06:13:53;17.17;;;11.25;;
64401;SDS011;50724;42.376;23.768;2023-06-26T06:16:53;17.80;;;10.80;;
64401;SDS011;50724;42.376;23.768;2023-06-26T06:20:03;18.80;;;11.85;;
64401;SDS011;50724;42.376;23.768;2023-06-26T06:23:04;16.98;;;11.52;;
64401;SDS011;50724;42.376;23.768;2023-06-26T06:26:06;17.52;;;11.85;;
64401;SDS011;50724;42.376;23.768;2023-06-26T06:29:06;18.37;;;11.53;;
64401;SDS011;50724;42.376;23.768;2023-06-26T06:32:07;18.23;;;11.65;;
64401;SDS011;50724;42.376;23.768;2023-06-26T06:35:08;17.67;;;10.95;;
64401;SDS011;50724;42.376;23.768;2023-06-26T06:38:09;13.05;;;10.10;;
64401;SDS011;50724;42.376;23.768;2023-06-26T06:41:10;11.82;;;5.95;;
64401;SDS011;50724;42.376;23.768;2023-06-26T06:44:10;13.20;;;6.77;;
64401;SDS011;50724;42.376;23.768;2023-06-26T06:47:11;11.30;;;5.90;;
64401;SDS011;50724;42.376;23.768;2023-06-26T06:50:11;11.93;;;6.05;;
64401;SDS011;50724;42.376;23.768;2023-06-26T06:56:14;8.18;;;4.97;;
64401;SDS011;50724;42.376;23.768;2023-06-26T06:59:14;9.65;;;4.80;;
64401;SDS011;50724;42.376;23.768;2023-06-26T07:02:18;10.10;;;5.38;;
64401;SDS011;50724;42.376;23.768;2023-06-26T07:05:18;9.13;;;5.45;;
64401;SDS011;50724;42.376;23.768;2023-06-26T07:08:19;11.45;;;5.38;;
64401;SDS011;50724;42.376;23.768;2023-06-26T07:11:19;8.25;;;4.70;;
64401;SDS011;50724;42.376;23.768;2023-06-26T07:14:20;8.98;;;5.50;;
64401;SDS011;50724;42.376;23.768;2023-06-26T07:17:20;8.88;;;5.65;;
64401;SDS011;50724;42.376;23.768;2023-06-26T07:20:21;12.32;;;6.78;;
64401;SDS011;50724;42.376;23.768;2023-06-26T07:23:21;9.23;;;5.97;;
64401;SDS011;50724;42.376;23.768;2023-06-26T07:26:22;10.15;;;6.40;;
64401;SDS011;50724;42.376;23.768;2023-06-26T07:29:23;10.02;;;7.15;;
64401;SDS011;50724;42.376;23.768;2023-06-26T07:32:23;9.52;;;5.88;;
64401;SDS011;50724;42.376;23.768;2023-06-26T07:35:24;8.23;;;5.17;;
64401;SDS011;50724;42.376;23.768;2023-06-26T07:38:27;9.07;;;4.88;;
64401;SDS011;50724;42.376;23.768;2023-06-26T07:41:28;7.72;;;5.30;;
64401;SDS011;50724;42.376;23.768;2023-06-26T07:44:30;8.50;;;5.35;;
64401;SDS011;50724;42.376;23.768;2023-06-26T07:47:30;7.63;;;5.30;;
64401;SDS011;50724;42.376;23.768;2023-06-26T07:50:31;8.63;;;5.68;;
64401;SDS011;50724;42.376;23.768;2023-06-26T07:53:31;10.60;;;6.72;;
64401;SDS011;50724;42.376;23.768;2023-06-26T07:56:35;11.40;;;6.50;;
64401;SDS011;50724;42.376;23.768;2023-06-26T07:59:51;39.05;;;16.88;;
64401;SDS011;50724;42.376;23.768;2023-06-26T08:02:52;17.38;;;8.48;;
64401;SDS011;50724;42.376;23.768;2023-06-26T08:05:53;27.70;;;14.10;;
64401;SDS011;50724;42.376;23.768;2023-06-26T08:08:53;10.90;;;6.00;;
64401;SDS011;50724;42.376;23.768;2023-06-26T08:11:54;23.00;;;11.80;;
64401;SDS011;50724;42.376;23.768;2023-06-26T08:14:54;11.63;;;6.13;;
64401;SDS011;50724;42.376;23.768;2023-06-26T08:17:55;10.38;;;6.30;;
64401;SDS011;50724;42.376;23.768;2023-06-26T08:20:56;11.52;;;6.03;;
64401;SDS011;50724;42.376;23.768;2023-06-26T08:23:56;10.60;;;5.75;;
64401;SDS011;50724;42.376;23.768;2023-06-26T08:26:57;13.50;;;6.43;;
64401;SDS011;50724;42.376;23.768;2023-06-26T08:29:59;9.25;;;5.22;;
64401;SDS011;50724;42.376;23.768;2023-06-26T08:32:59;9.60;;;6.23;;
64401;SDS011;50724;42.376;23.768;2023-06-26T08:35:59;8.05;;;5.50;;
64401;SDS011;50724;42.376;23.768;2023-06-26T08:39:00;9.43;;;5.47;;
64401;SDS011;50724;42.376;23.768;2023-06-26T08:42:00;9.88;;;5.18;;
64401;SDS011;50724;42.376;23.768;2023-06-26T08:45:01;9.57;;;5.53;;
64401;SDS011;50724;42.376;23.768;2023-06-26T08:48:07;31.00;;;12.75;;
64401;SDS011;50724;42.376;23.768;2023-06-26T08:51:09;92.65;;;33.53;;
64401;SDS011;50724;42.376;23.768;2023-06-26T08:54:11;101.05;;;38.10;;
64401;SDS011;50724;42.376;23.768;2023-06-26T08:57:18;35.33;;;14.68;;
64401;SDS011;50724;42.376;23.768;2023-06-26T09:00:19;14.93;;;6.85;;
64401;SDS011;50724;42.376;23.768;2023-06-26T09:03:20;31.27;;;12.15;;
64401;SDS011;50724;42.376;23.768;2023-06-26T09:06:21;34.45;;;13.40;;
64401;SDS011;50724;42.376;23.768;2023-06-26T09:09:21;9.55;;;4.82;;
64401;SDS011;50724;42.376;23.768;2023-06-26T09:12:22;8.07;;;4.30;;
64401;SDS011;50724;42.376;23.768;2023-06-26T09:15:23;9.18;;;4.63;;
64401;SDS011;50724;42.376;23.768;2023-06-26T09:18:24;8.65;;;4.18;;
64401;SDS011;50724;42.376;23.768;2023-06-26T09:21:24;22.10;;;10.07;;
64401;SDS011;50724;42.376;23.768;2023-06-26T09:24:25;75.15;;;28.77;;
64401;SDS011;50724;42.376;23.768;2023-06-26T09:27:26;23.10;;;9.57;;
64401;SDS011;50724;42.376;23.768;2023-06-26T09:30:26;7.35;;;4.93;;
64401;SDS011;50724;42.376;23.768;2023-06-26T09:33:27;13.43;;;6.63;;
64401;SDS011;50724;42.376;23.768;2023-06-26T09:36:28;20.35;;;9.23;;
64401;SDS011;50724;42.376;23.768;2023-06-26T09:39:32;11.23;;;5.80;;
64401;SDS011;50724;42.376;23.768;2023-06-26T09:42:33;8.68;;;4.93;;
64401;SDS011;50724;42.376;23.768;2023-06-26T09:45:34;8.43;;;5.20;;
64401;SDS011;50724;42.376;23.768;2023-06-26T09:48:36;7.20;;;3.90;;
64401;SDS011;50724;42.376;23.768;2023-06-26T09:51:37;9.83;;;4.47;;
64401;SDS011;50724;42.376;23.768;2023-06-26T09:54:39;6.70;;;3.92;;
64401;SDS011;50724;42.376;23.768;2023-06-26T09:57:39;10.00;;;4.73;;
64401;SDS011;50724;42.376;23.768;2023-06-26T10:00:41;9.20;;;4.97;;
64401;SDS011;50724;42.376;23.768;2023-06-26T10:03:42;10.93;;;5.20;;
64401;SDS011;50724;42.376;23.768;2023-06-26T10:06:46;8.57;;;4.97;;
64401;SDS011;50724;42.376;23.768;2023-06-26T10:09:49;7.68;;;4.85;;
64401;SDS011;50724;42.376;23.768;2023-06-26T10:12:52;9.43;;;5.05;;
64401;SDS011;50724;42.376;23.768;2023-06-26T10:15:59;7.70;;;4.88;;
64401;SDS011;50724;42.376;23.768;2023-06-26T10:19:01;9.68;;;4.70;;
64401;SDS011;50724;42.376;23.768;2023-06-26T10:22:05;11.90;;;6.10;;
64401;SDS011;50724;42.376;23.768;2023-06-26T10:25:06;7.63;;;4.57;;
64401;SDS011;50724;42.376;23.768;2023-06-26T10:28:07;8.18;;;4.60;;
64401;SDS011;50724;42.376;23.768;2023-06-26T10:31:11;8.82;;;4.47;;
64401;SDS011;50724;42.376;23.768;2023-06-26T10:34:12;6.80;;;4.32;;
64401;SDS011;50724;42.376;23.768;2023-06-26T10:37:13;7.55;;;4.43;;
64401;SDS011;50724;42.376;23.768;2023-06-26T10:40:15;11.52;;;6.35;;
64401;SDS011;50724;42.376;23.768;2023-06-26T10:43:29;10.85;;;5.60;;
64401;SDS011;50724;42.376;23.768;2023-06-26T10:46:32;8.13;;;5.07;;
64401;SDS011;50724;42.376;23.768;2023-06-26T10:49:34;26.70;;;12.55;;
64401;SDS011;50724;42.376;23.768;2023-06-26T10:52:36;18.23;;;8.43;;
64401;SDS011;50724;42.376;23.768;2023-06-26T10:55:37;28.38;;;13.82;;
64401;SDS011;50724;42.376;23.768;2023-06-26T10:58:42;16.77;;;8.65;;
64401;SDS011;50724;42.376;23.768;2023-06-26T11:05:22;11.13;;;4.97;;
64401;SDS011;50724;42.376;23.768;2023-06-26T11:08:45;8.38;;;5.07;;
64401;SDS011;50724;42.376;23.768;2023-06-26T11:14:53;9.57;;;5.35;;
64401;SDS011;50724;42.376;23.768;2023-06-26T11:17:56;8.05;;;5.05;;
64401;SDS011;50724;42.376;23.768;2023-06-26T11:21:07;9.48;;;5.10;;
64401;SDS011;50724;42.376;23.768;2023-06-26T11:24:09;8.27;;;5.47;;
64401;SDS011;50724;42.376;23.768;2023-06-26T11:27:11;10.63;;;5.50;;
64401;SDS011;50724;42.376;23.768;2023-06-26T11:30:21;8.90;;;5.07;;
64401;SDS011;50724;42.376;23.768;2023-06-26T11:33:26;60.70;;;23.75;;
64401;SDS011;50724;42.376;23.768;2023-06-26T11:36:27;7.53;;;4.95;;
64401;SDS011;50724;42.376;23.768;2023-06-26T11:39:27;11.38;;;6.00;;
64401;SDS011;50724;42.376;23.768;2023-06-26T11:42:28;22.00;;;9.85;;
64401;SDS011;50724;42.376;23.768;2023-06-26T11:45:29;33.38;;;13.43;;
64401;SDS011;50724;42.376;23.768;2023-06-26T11:48:31;49.83;;;18.83;;
64401;SDS011;50724;42.376;23.768;2023-06-26T11:51:31;12.07;;;5.90;;
64401;SDS011;50724;42.376;23.768;2023-06-26T11:54:33;10.57;;;5.78;;
64401;SDS011;50724;42.376;23.768;2023-06-26T11:57:33;7.88;;;4.97;;
64401;SDS011;50724;42.376;23.768;2023-06-26T12:00:33;28.57;;;10.90;;
64401;SDS011;50724;42.376;23.768;2023-06-26T12:03:34;34.77;;;13.47;;
64401;SDS011;50724;42.376;23.768;2023-06-26T12:06:35;32.65;;;12.13;;
64401;SDS011;50724;42.376;23.768;2023-06-26T12:09:41;28.63;;;10.57;;
64401;SDS011;50724;42.376;23.768;2023-06-26T12:12:43;18.90;;;7.50;;
64401;SDS011;50724;42.376;23.768;2023-06-26T12:15:45;15.07;;;6.00;;
64401;SDS011;50724;42.376;23.768;2023-06-26T12:18:58;16.15;;;6.72;;
64401;SDS011;50724;42.376;23.768;2023-06-26T12:22:06;19.48;;;7.35;;
64401;SDS011;50724;42.376;23.768;2023-06-26T12:25:07;11.10;;;4.80;;
64401;SDS011;50724;42.376;23.768;2023-06-26T12:28:15;16.48;;;7.03;;
64401;SDS011;50724;42.376;23.768;2023-06-26T12:31:16;14.77;;;6.50;;
64401;SDS011;50724;42.376;23.768;2023-06-26T12:34:21;21.13;;;9.02;;
64401;SDS011;50724;42.376;23.768;2023-06-26T12:37:27;19.40;;;8.85;;
64401;SDS011;50724;42.376;23.768;2023-06-26T12:40:28;13.90;;;6.82;;
64401;SDS011;50724;42.376;23.768;2023-06-26T12:43:28;13.65;;;7.05;;
64401;SDS011;50724;42.376;23.768;2023-06-26T12:46:34;12.47;;;5.60;;
64401;SDS011;50724;42.376;23.768;2023-06-26T12:52:36;7.53;;;4.38;;
64401;SDS011;50724;42.376;23.768;2023-06-26T12:55:36;5.90;;;3.75;;
64401;SDS011;50724;42.376;23.768;2023-06-26T12:58:37;7.88;;;4.47;;
64401;SDS011;50724;42.376;23.768;2023-06-26T13:01:38;6.85;;;3.88;;
64401;SDS011;50724;42.376;23.768;2023-06-26T13:04:38;28.00;;;13.43;;
64401;SDS011;50724;42.376;23.768;2023-06-26T13:07:39;17.27;;;8.05;;
64401;SDS011;50724;42.376;23.768;2023-06-26T13:10:40;23.07;;;9.27;;
64401;SDS011;50724;42.376;23.768;2023-06-26T13:13:40;7.30;;;3.80;;
64401;SDS011;50724;42.376;23.768;2023-06-26T13:16:41;11.67;;;4.00;;
64401;SDS011;50724;42.376;23.768;2023-06-26T13:19:41;30.58;;;12.35;;
64401;SDS011;50724;42.376;23.768;2023-06-26T13:22:42;9.80;;;5.72;;
64401;SDS011;50724;42.376;23.768;2023-06-26T13:25:42;9.70;;;4.93;;
64401;SDS011;50724;42.376;23.768;2023-06-26T13:28:42;7.05;;;4.18;;
64401;SDS011;50724;42.376;23.768;2023-06-26T13:31:43;7.13;;;3.87;;
64401;SDS011;50724;42.376;23.768;2023-06-26T13:34:43;10.20;;;5.38;;
64401;SDS011;50724;42.376;23.768;2023-06-26T13:37:44;8.32;;;4.07;;
64401;SDS011;50724;42.376;23.768;2023-06-26T13:40:44;9.10;;;4.73;;
64401;SDS011;50724;42.376;23.768;2023-06-26T13:43:44;6.77;;;3.87;;
64401;SDS011;50724;42.376;23.768;2023-06-26T13:46:45;8.87;;;3.87;;
64401;SDS011;50724;42.376;23.768;2023-06-26T13:49:45;8.80;;;4.00;;
64401;SDS011;50724;42.376;23.768;2023-06-26T13:52:46;7.20;;;3.72;;
64401;SDS011;50724;42.376;23.768;2023-06-26T13:55:46;7.23;;;4.30;;
64401;SDS011;50724;42.376;23.768;2023-06-26T13:58:47;7.85;;;4.05;;
64401;SDS011;50724;42.376;23.768;2023-06-26T14:01:47;6.57;;;3.97;;
64401;SDS011;50724;42.376;23.768;2023-06-26T14:04:47;8.33;;;3.97;;
64401;SDS011;50724;42.376;23.768;2023-06-26T14:07:48;6.68;;;3.95;;
64401;SDS011;50724;42.376;23.768;2023-06-26T14:10:48;8.32;;;3.70;;
64401;SDS011;50724;42.376;23.768;2023-06-26T14:13:51;10.20;;;4.07;;
64401;SDS011;50724;42.376;23.768;2023-06-26T14:16:52;9.70;;;4.63;;
64401;SDS011;50724;42.376;23.768;2023-06-26T14:19:52;6.60;;;3.47;;
64401;SDS011;50724;42.376;23.768;2023-06-26T14:22:53;6.15;;;3.35;;
64401;SDS011;50724;42.376;23.768;2023-06-26T14:25:54;6.35;;;3.13;;
64401;SDS011;50724;42.376;23.768;2023-06-26T14:28:54;7.60;;;3.88;;
64401;SDS011;50724;42.376;23.768;2023-06-26T14:31:55;6.95;;;3.45;;
64401;SDS011;50724;42.376;23.768;2023-06-26T14:34:56;8.23;;;4.05;;
64401;SDS011;50724;42.376;23.768;2023-06-26T14:37:56;6.75;;;3.67;;
64401;SDS011;50724;42.376;23.768;2023-06-26T14:40:57;8.50;;;4.00;;
64401;SDS011;50724;42.376;23.768;2023-06-26T14:43:57;8.13;;;4.20;;
64401;SDS011;50724;42.376;23.768;2023-06-26T14:46:57;5.45;;;3.22;;
64401;SDS011;50724;42.376;23.768;2023-06-26T14:49:58;7.18;;;3.90;;
64401;SDS011;50724;42.376;23.768;2023-06-26T14:52:58;5.70;;;3.63;;
64401;SDS011;50724;42.376;23.768;2023-06-26T14:55:59;9.02;;;3.72;;
64401;SDS011;50724;42.376;23.768;2023-06-26T14:58:59;8.25;;;4.38;;
64401;SDS011;50724;42.376;23.768;2023-06-26T15:02:00;6.50;;;3.60;;
64401;SDS011;50724;42.376;23.768;2023-06-26T15:05:00;6.53;;;3.60;;
64401;SDS011;50724;42.376;23.768;2023-06-26T15:08:01;7.15;;;4.13;;
64401;SDS011;50724;42.376;23.768;2023-06-26T15:11:01;6.57;;;4.00;;
64401;SDS011;50724;42.376;23.768;2023-06-26T15:14:02;8.45;;;4.18;;
64401;SDS011;50724;42.376;23.768;2023-06-26T15:17:03;10.13;;;4.53;;
64401;SDS011;50724;42.376;23.768;2023-06-26T15:20:04;8.48;;;4.40;;
64401;SDS011;50724;42.376;23.768;2023-06-26T15:23:05;7.38;;;4.00;;
64401;SDS011;50724;42.376;23.768;2023-06-26T15:26:06;6.53;;;3.80;;
64401;SDS011;50724;42.376;23.768;2023-06-26T15:29:06;6.30;;;4.00;;
64401;SDS011;50724;42.376;23.768;2023-06-26T15:32:07;7.55;;;4.18;;
64401;SDS011;50724;42.376;23.768;2023-06-26T15:35:07;8.05;;;3.80;;
64401;SDS011;50724;42.376;23.768;2023-06-26T15:38:08;8.10;;;4.35;;
64401;SDS011;50724;42.376;23.768;2023-06-26T15:41:09;7.75;;;4.20;;
64401;SDS011;50724;42.376;23.768;2023-06-26T15:44:09;5.73;;;3.20;;
64401;SDS011;50724;42.376;23.768;2023-06-26T15:47:09;7.10;;;3.35;;
64401;SDS011;50724;42.376;23.768;2023-06-26T15:50:10;5.67;;;3.10;;
64401;SDS011;50724;42.376;23.768;2023-06-26T15:53:11;6.50;;;3.15;;
64401;SDS011;50724;42.376;23.768;2023-06-26T15:56:16;5.57;;;2.72;;
64401;SDS011;50724;42.376;23.768;2023-06-26T15:59:16;6.82;;;2.92;;
64401;SDS011;50724;42.376;23.768;2023-06-26T16:02:18;5.78;;;3.47;;
64401;SDS011;50724;42.376;23.768;2023-06-26T16:05:19;7.27;;;3.80;;
64401;SDS011;50724;42.376;23.768;2023-06-26T16:08:19;6.40;;;3.50;;
64401;SDS011;50724;42.376;23.768;2023-06-26T16:11:20;7.40;;;3.45;;
64401;SDS011;50724;42.376;23.768;2023-06-26T16:14:20;6.57;;;3.40;;
64401;SDS011;50724;42.376;23.768;2023-06-26T16:17:21;9.38;;;3.97;;
64401;SDS011;50724;42.376;23.768;2023-06-26T16:20:21;10.73;;;4.37;;
64401;SDS011;50724;42.376;23.768;2023-06-26T16:23:22;8.80;;;4.45;;
64401;SDS011;50724;42.376;23.768;2023-06-26T16:26:22;7.82;;;4.32;;
64401;SDS011;50724;42.376;23.768;2023-06-26T16:29:31;8.52;;;4.28;;
64401;SDS011;50724;42.376;23.768;2023-06-26T16:32:33;7.38;;;4.53;;
64401;SDS011;50724;42.376;23.768;2023-06-26T16:35:33;6.40;;;3.90;;
64401;SDS011;50724;42.376;23.768;2023-06-26T16:38:37;7.53;;;4.28;;
64401;SDS011;50724;42.376;23.768;2023-06-26T16:41:41;6.50;;;4.05;;
64401;SDS011;50724;42.376;23.768;2023-06-26T16:44:41;8.40;;;3.50;;
64401;SDS011;50724;42.376;23.768;2023-06-26T16:47:41;7.07;;;3.80;;
64401;SDS011;50724;42.376;23.768;2023-06-26T16:50:42;9.03;;;3.63;;
64401;SDS011;50724;42.376;23.768;2023-06-26T16:53:42;7.93;;;3.80;;
64401;SDS011;50724;42.376;23.768;2023-06-26T16:56:43;5.27;;;3.20;;
64401;SDS011;50724;42.376;23.768;2023-06-26T16:59:43;6.80;;;3.47;;
64401;SDS011;50724;42.376;23.768;2023-06-26T17:02:44;6.90;;;3.80;;
64401;SDS011;50724;42.376;23.768;2023-06-26T17:05:45;7.80;;;4.38;;
64401;SDS011;50724;42.376;23.768;2023-06-26T17:08:46;7.33;;;4.27;;
64401;SDS011;50724;42.376;23.768;2023-06-26T17:11:46;7.90;;;3.80;;
64401;SDS011;50724;42.376;23.768;2023-06-26T17:14:47;10.13;;;3.97;;
64401;SDS011;50724;42.376;23.768;2023-06-26T17:17:48;7.13;;;4.25;;
64401;SDS011;50724;42.376;23.768;2023-06-26T17:20:49;6.30;;;3.65;;
64401;SDS011;50724;42.376;23.768;2023-06-26T17:23:49;8.13;;;4.33;;
64401;SDS011;50724;42.376;23.768;2023-06-26T17:26:50;6.40;;;3.67;;
64401;SDS011;50724;42.376;23.768;2023-06-26T17:29:50;6.65;;;3.70;;
64401;SDS011;50724;42.376;23.768;2023-06-26T17:32:51;8.40;;;4.18;;
64401;SDS011;50724;42.376;23.768;2023-06-26T17:35:51;7.22;;;4.15;;
64401;SDS011;50724;42.376;23.768;2023-06-26T17:38:52;7.10;;;3.80;;
64401;SDS011;50724;42.376;23.768;2023-06-26T17:41:55;10.00;;;5.30;;
64401;SDS011;50724;42.376;23.768;2023-06-26T17:44:55;8.73;;;4.60;;
64401;SDS011;50724;42.376;23.768;2023-06-26T17:47:56;9.73;;;4.07;;
64401;SDS011;50724;42.376;23.768;2023-06-26T17:50:56;7.40;;;4.20;;
64401;SDS011;50724;42.376;23.768;2023-06-26T17:53:57;9.53;;;4.53;;
64401;SDS011;50724;42.376;23.768;2023-06-26T17:56:57;10.97;;;4.93;;
64401;SDS011;50724;42.376;23.768;2023-06-26T17:59:57;10.73;;;5.23;;
64401;SDS011;50724;42.376;23.768;2023-06-26T18:02:58;14.60;;;6.43;;
64401;SDS011;50724;42.376;23.768;2023-06-26T18:05:58;10.27;;;4.90;;
64401;SDS011;50724;42.376;23.768;2023-06-26T18:09:02;9.50;;;5.10;;
64401;SDS011;50724;42.376;23.768;2023-06-26T18:12:04;9.18;;;4.80;;
64401;SDS011;50724;42.376;23.768;2023-06-26T18:15:05;8.30;;;5.35;;
64401;SDS011;50724;42.376;23.768;2023-06-26T18:18:15;11.13;;;5.05;;
64401;SDS011;50724;42.376;23.768;2023-06-26T18:21:24;9.95;;;5.38;;
64401;SDS011;50724;42.376;23.768;2023-06-26T18:24:25;8.80;;;5.00;;
64401;SDS011;50724;42.376;23.768;2023-06-26T18:27:30;10.27;;;4.90;;
64401;SDS011;50724;42.376;23.768;2023-06-26T18:30:34;8.93;;;5.38;;
64401;SDS011;50724;42.376;23.768;2023-06-26T18:33:36;10.52;;;5.05;;
64401;SDS011;50724;42.376;23.768;2023-06-26T18:36:37;9.50;;;4.97;;
64401;SDS011;50724;42.376;23.768;2023-06-26T18:39:38;8.65;;;5.00;;
64401;SDS011;50724;42.376;23.768;2023-06-26T18:42:39;9.45;;;5.00;;
64401;SDS011;50724;42.376;23.768;2023-06-26T18:45:43;10.18;;;4.75;;
64401;SDS011;50724;42.376;23.768;2023-06-26T18:48:45;10.83;;;5.13;;
64401;SDS011;50724;42.376;23.768;2023-06-26T18:51:46;9.93;;;4.55;;
64401;SDS011;50724;42.376;23.768;2023-06-26T18:54:46;9.33;;;4.63;;
64401;SDS011;50724;42.376;23.768;2023-06-26T18:57:47;9.70;;;5.17;;
64401;SDS011;50724;42.376;23.768;2023-06-26T19:00:48;10.50;;;4.55;;
64401;SDS011;50724;42.376;23.768;2023-06-26T19:03:49;11.70;;;4.80;;
64401;SDS011;50724;42.376;23.768;2023-06-26T19:06:49;10.25;;;4.82;;
64401;SDS011;50724;42.376;23.768;2023-06-26T19:09:50;11.85;;;4.93;;
64401;SDS011;50724;42.376;23.768;2023-06-26T19:12:50;9.93;;;4.70;;
64401;SDS011;50724;42.376;23.768;2023-06-26T19:15:52;9.52;;;4.72;;
64401;SDS011;50724;42.376;23.768;2023-06-26T19:18:53;8.27;;;4.70;;
64401;SDS011;50724;42.376;23.768;2023-06-26T19:21:55;8.15;;;4.55;;
64401;SDS011;50724;42.376;23.768;2023-06-26T19:24:55;10.77;;;4.27;;
64401;SDS011;50724;42.376;23.768;2023-06-26T19:27:56;10.43;;;4.00;;
64401;SDS011;50724;42.376;23.768;2023-06-26T19:30:56;9.43;;;4.30;;
64401;SDS011;50724;42.376;23.768;2023-06-26T19:33:57;8.93;;;4.30;;
64401;SDS011;50724;42.376;23.768;2023-06-26T19:36:57;9.60;;;4.30;;
64401;SDS011;50724;42.376;23.768;2023-06-26T19:39:57;9.13;;;4.90;;
64401;SDS011;50724;42.376;23.768;2023-06-26T19:42:58;9.07;;;4.30;;
64401;SDS011;50724;42.376;23.768;2023-06-26T19:45:58;8.67;;;4.23;;
64401;SDS011;50724;42.376;23.768;2023-06-26T19:48:59;10.52;;;4.75;;
64401;SDS011;50724;42.376;23.768;2023-06-26T19:51:59;11.48;;;4.53;;
64401;SDS011;50724;42.376;23.768;2023-06-26T19:55:00;12.33;;;4.90;;
64401;SDS011;50724;42.376;23.768;2023-06-26T19:58:00;8.65;;;4.93;;
64401;SDS011;50724;42.376;23.768;2023-06-26T20:01:00;8.20;;;4.37;;
64401;SDS011;50724;42.376;23.768;2023-06-26T20:04:01;11.30;;;4.73;;
64401;SDS011;50724;42.376;23.768;2023-06-26T20:07:04;8.27;;;4.47;;
64401;SDS011;50724;42.376;23.768;2023-06-26T20:10:05;7.93;;;4.03;;
64401;SDS011;50724;42.376;23.768;2023-06-26T20:13:06;8.90;;;4.60;;
64401;SDS011;50724;42.376;23.768;2023-06-26T20:16:08;8.07;;;4.63;;
64401;SDS011;50724;42.376;23.768;2023-06-26T20:19:09;9.30;;;4.43;;
64401;SDS011;50724;42.376;23.768;2023-06-26T20:22:09;8.45;;;4.15;;
64401;SDS011;50724;42.376;23.768;2023-06-26T20:25:09;7.50;;;4.30;;
64401;SDS011;50724;42.376;23.768;2023-06-26T20:28:10;8.18;;;4.53;;
64401;SDS011;50724;42.376;23.768;2023-06-26T20:31:10;8.90;;;4.90;;
64401;SDS011;50724;42.376;23.768;2023-06-26T20:34:11;9.20;;;4.30;;
64401;SDS011;50724;42.376;23.768;2023-06-26T20:37:20;8.55;;;4.30;;
64401;SDS011;50724;42.376;23.768;2023-06-26T20:40:20;7.40;;;4.22;;
64401;SDS011;50724;42.376;23.768;2023-06-26T20:43:21;7.75;;;4.65;;
64401;SDS011;50724;42.376;23.768;2023-06-26T20:46:22;7.68;;;4.40;;
64401;SDS011;50724;42.376;23.768;2023-06-26T20:49:31;10.98;;;4.25;;
64401;SDS011;50724;42.376;23.768;2023-06-26T20:52:32;8.13;;;4.20;;
64401;SDS011;50724;42.376;23.768;2023-06-26T20:55:34;7.88;;;4.10;;
64401;SDS011;50724;42.376;23.768;2023-06-26T20:58:34;9.10;;;4.22;;
64401;SDS011;50724;42.376;23.768;2023-06-26T21:01:35;8.17;;;4.77;;
64401;SDS011;50724;42.376;23.768;2023-06-26T21:04:35;9.18;;;4.00;;
64401;SDS011;50724;42.376;23.768;2023-06-26T21:07:36;8.90;;;4.55;;
64401;SDS011;50724;42.376;23.768;2023-06-26T21:10:36;8.40;;;3.93;;
64401;SDS011;50724;42.376;23.768;2023-06-26T21:13:37;7.70;;;4.00;;
64401;SDS011;50724;42.376;23.768;2023-06-26T21:16:37;8.85;;;4.35;;
64401;SDS011;50724;42.376;23.768;2023-06-26T21:19:38;8.60;;;4.30;;
64401;SDS011;50724;42.376;23.768;2023-06-26T21:22:38;6.87;;;3.97;;
64401;SDS011;50724;42.376;23.768;2023-06-26T21:25:38;7.53;;;3.70;;
64401;SDS011;50724;42.376;23.768;2023-06-26T21:28:39;9.70;;;3.83;;
64401;SDS011;50724;42.376;23.768;2023-06-26T21:31:39;8.17;;;3.80;;
64401;SDS011;50724;42.376;23.768;2023-06-26T21:34:39;8.10;;;4.47;;
64401;SDS011;50724;42.376;23.768;2023-06-26T21:37:40;7.73;;;4.03;;
64401;SDS011;50724;42.376;23.768;2023-06-26T21:40:41;7.57;;;4.35;;
64401;SDS011;50724;42.376;23.768;2023-06-26T21:43:41;7.68;;;4.35;;
64401;SDS011;50724;42.376;23.768;2023-06-26T21:46:42;7.95;;;4.10;;
64401;SDS011;50724;42.376;23.768;2023-06-26T21:49:42;7.77;;;4.70;;
64401;SDS011;50724;42.376;23.768;2023-06-26T21:52:43;8.48;;;4.10;;
64401;SDS011;50724;42.376;23.768;2023-06-26T21:55:43;7.90;;;4.37;;
64401;SDS011;50724;42.376;23.768;2023-06-26T21:58:43;7.95;;;3.92;;
64401;SDS011;50724;42.376;23.768;2023-06-26T22:01:53;8.32;;;4.07;;
64401;SDS011;50724;42.376;23.768;2023-06-26T22:04:54;8.48;;;3.95;;
64401;SDS011;50724;42.376;23.768;2023-06-26T22:07:54;6.50;;;3.83;;
64401;SDS011;50724;42.376;23.768;2023-06-26T22:10:55;7.27;;;4.00;;
64401;SDS011;50724;42.376;23.768;2023-06-26T22:13:55;8.57;;;3.75;;
64401;SDS011;50724;42.376;23.768;2023-06-26T22:17:13;6.78;;;3.65;;
64401;SDS011;50724;42.376;23.768;2023-06-26T22:20:14;9.27;;;3.40;;
64401;SDS011;50724;42.376;23.768;2023-06-26T22:23:15;7.78;;;3.22;;
64401;SDS011;50724;42.376;23.768;2023-06-26T22:26:16;6.27;;;2.97;;
64401;SDS011;50724;42.376;23.768;2023-06-26T22:29:16;6.57;;;3.10;;
64401;SDS011;50724;42.376;23.768;2023-06-26T22:32:17;9.10;;;3.47;;
64401;SDS011;50724;42.376;23.768;2023-06-26T22:35:17;6.53;;;3.25;;
64401;SDS011;50724;42.376;23.768;2023-06-26T22:38:18;5.25;;;2.78;;
64401;SDS011;50724;42.376;23.768;2023-06-26T22:41:21;5.78;;;3.03;;
64401;SDS011;50724;42.376;23.768;2023-06-26T22:44:21;5.67;;;2.70;;
64401;SDS011;50724;42.376;23.768;2023-06-26T22:47:22;6.35;;;3.13;;
64401;SDS011;50724;42.376;23.768;2023-06-26T22:50:22;7.47;;;3.17;;
64401;SDS011;50724;42.376;23.768;2023-06-26T22:53:26;7.32;;;3.45;;
64401;SDS011;50724;42.376;23.768;2023-06-26T22:56:27;6.82;;;3.10;;
64401;SDS011;50724;42.376;23.768;2023-06-26T22:59:27;6.90;;;3.25;;
64401;SDS011;50724;42.376;23.768;2023-06-26T23:02:28;6.03;;;2.90;;
64401;SDS011;50724;42.376;23.768;2023-06-26T23:05:29;6.50;;;3.40;;
64401;SDS011;50724;42.376;23.768;2023-06-26T23:08:29;7.78;;;3.47;;
64401;SDS011;50724;42.376;23.768;2023-06-26T23:11:30;7.53;;;4.00;;
64401;SDS011;50724;42.376;23.768;2023-06-26T23:14:30;7.87;;;3.83;;